Gleeson, Arizona
Current Conditions -  °F | °C
As of 3:56 AM on Thursday 23 Oct 2014 (Local Time) from KDUG Reporting Station
Clear Clear  
Wind Chill:   Ceiling: Unl
Heat Index:   Visibility: 10mi
Dew Point:   Wind: 3mph
Humidity: 89%   Direction: NA
Pressure: 30.14"   Gusts: NA
Location:  31.7341°N, 109.494°W
Report Text: KDUG 231056Z AUTO VRB03KT 10SM CLR 09/07 A3014 RMK AO2 SLP155 T00890072
Loading
Personal Weather Stations






























Interactive Weather Map
Tropical Storm Tracking
New forecast layout! Learn more

10-Day Weather Forecast

Advertisements
Track Severe Weather on mobile